sensor_id;sensor_type;location;lat;lon;timestamp;temperature;humidity
20380;DHT22;10349;48.666;8.948;2022-07-06T00:00:42;15.40;99.90
20380;DHT22;10349;48.666;8.948;2022-07-06T00:03:08;15.50;99.90
20380;DHT22;10349;48.666;8.948;2022-07-06T00:05:33;15.60;99.90
20380;DHT22;10349;48.666;8.948;2022-07-06T00:07:59;15.70;99.90
20380;DHT22;10349;48.666;8.948;2022-07-06T00:10:25;15.70;99.90
20380;DHT22;10349;48.666;8.948;2022-07-06T00:12:50;15.80;99.90
20380;DHT22;10349;48.666;8.948;2022-07-06T00:15:16;15.80;99.90
20380;DHT22;10349;48.666;8.948;2022-07-06T00:17:41;15.90;99.90
20380;DHT22;10349;48.666;8.948;2022-07-06T00:20:07;16.00;99.90
20380;DHT22;10349;48.666;8.948;2022-07-06T00:22:34;15.90;99.90
20380;DHT22;10349;48.666;8.948;2022-07-06T00:24:59;15.90;99.90
20380;DHT22;10349;48.666;8.948;2022-07-06T00:27:25;15.90;99.90
20380;DHT22;10349;48.666;8.948;2022-07-06T00:29:51;15.80;99.90
20380;DHT22;10349;48.666;8.948;2022-07-06T00:32:16;15.70;99.90
20380;DHT22;10349;48.666;8.948;2022-07-06T00:34:42;15.50;99.90
20380;DHT22;10349;48.666;8.948;2022-07-06T00:37:09;15.30;99.90
20380;DHT22;10349;48.666;8.948;2022-07-06T00:39:35;15.20;99.90
20380;DHT22;10349;48.666;8.948;2022-07-06T00:42:00;15.20;99.90
20380;DHT22;10349;48.666;8.948;2022-07-06T00:44:26;15.10;99.90
20380;DHT22;10349;48.666;8.948;2022-07-06T00:46:52;15.00;99.90
20380;DHT22;10349;48.666;8.948;2022-07-06T00:49:18;15.00;99.90
20380;DHT22;10349;48.666;8.948;2022-07-06T00:52:03;14.90;99.90
20380;DHT22;10349;48.666;8.948;2022-07-06T00:54:31;15.00;99.90
20380;DHT22;10349;48.666;8.948;2022-07-06T00:56:57;15.00;99.90
20380;DHT22;10349;48.666;8.948;2022-07-06T00:59:24;15.00;99.90
20380;DHT22;10349;48.666;8.948;2022-07-06T01:01:50;15.10;99.90
20380;DHT22;10349;48.666;8.948;2022-07-06T01:04:16;15.10;99.90
20380;DHT22;10349;48.666;8.948;2022-07-06T01:06:45;15.20;99.90
20380;DHT22;10349;48.666;8.948;2022-07-06T01:09:11;15.30;99.90
20380;DHT22;10349;48.666;8.948;2022-07-06T01:11:37;15.30;99.90
20380;DHT22;10349;48.666;8.948;2022-07-06T01:14:03;15.40;99.90
20380;DHT22;10349;48.666;8.948;2022-07-06T01:16:29;15.50;99.90
20380;DHT22;10349;48.666;8.948;2022-07-06T01:18:55;15.60;99.90
20380;DHT22;10349;48.666;8.948;2022-07-06T01:21:20;15.60;99.90
20380;DHT22;10349;48.666;8.948;2022-07-06T01:23:47;15.60;99.90
20380;DHT22;10349;48.666;8.948;2022-07-06T01:26:15;15.70;99.90
20380;DHT22;10349;48.666;8.948;2022-07-06T01:28:42;15.70;99.90
20380;DHT22;10349;48.666;8.948;2022-07-06T01:31:34;15.70;99.90
20380;DHT22;10349;48.666;8.948;2022-07-06T01:34:00;15.70;99.90
20380;DHT22;10349;48.666;8.948;2022-07-06T01:36:26;15.80;99.90
20380;DHT22;10349;48.666;8.948;2022-07-06T01:38:55;15.80;99.90
20380;DHT22;10349;48.666;8.948;2022-07-06T01:41:25;15.70;99.90
20380;DHT22;10349;48.666;8.948;2022-07-06T01:43:51;15.70;99.90
20380;DHT22;10349;48.666;8.948;2022-07-06T01:46:17;15.60;99.90
20380;DHT22;10349;48.666;8.948;2022-07-06T01:48:46;15.50;99.90
20380;DHT22;10349;48.666;8.948;2022-07-06T01:51:12;15.40;99.90
20380;DHT22;10349;48.666;8.948;2022-07-06T01:53:39;15.40;99.90
20380;DHT22;10349;48.666;8.948;2022-07-06T01:56:06;15.40;99.90
20380;DHT22;10349;48.666;8.948;2022-07-06T01:58:32;15.30;99.90
20380;DHT22;10349;48.666;8.948;2022-07-06T02:00:58;15.40;99.90
20380;DHT22;10349;48.666;8.948;2022-07-06T02:03:24;15.30;99.90
20380;DHT22;10349;48.666;8.948;2022-07-06T02:05:49;15.30;99.90
20380;DHT22;10349;48.666;8.948;2022-07-06T02:08:15;15.30;99.90
20380;DHT22;10349;48.666;8.948;2022-07-06T02:10:40;15.20;99.90
20380;DHT22;10349;48.666;8.948;2022-07-06T02:13:06;15.00;99.90
20380;DHT22;10349;48.666;8.948;2022-07-06T02:15:32;14.90;99.90
20380;DHT22;10349;48.666;8.948;2022-07-06T02:17:58;14.80;99.90
20380;DHT22;10349;48.666;8.948;2022-07-06T02:20:24;14.70;99.90
20380;DHT22;10349;48.666;8.948;2022-07-06T02:22:49;14.70;99.90
20380;DHT22;10349;48.666;8.948;2022-07-06T02:25:15;14.70;99.90
20380;DHT22;10349;48.666;8.948;2022-07-06T02:27:41;14.70;99.90
20380;DHT22;10349;48.666;8.948;2022-07-06T02:30:09;14.80;99.90
20380;DHT22;10349;48.666;8.948;2022-07-06T02:32:35;14.80;99.90
20380;DHT22;10349;48.666;8.948;2022-07-06T02:35:02;14.90;99.90
20380;DHT22;10349;48.666;8.948;2022-07-06T02:37:29;14.90;99.90
20380;DHT22;10349;48.666;8.948;2022-07-06T02:39:54;14.90;99.90
20380;DHT22;10349;48.666;8.948;2022-07-06T02:42:20;14.90;99.90
20380;DHT22;10349;48.666;8.948;2022-07-06T02:44:46;14.80;99.90
20380;DHT22;10349;48.666;8.948;2022-07-06T02:47:12;14.80;99.90
20380;DHT22;10349;48.666;8.948;2022-07-06T02:49:38;14.70;99.90
20380;DHT22;10349;48.666;8.948;2022-07-06T02:52:03;14.50;99.90
20380;DHT22;10349;48.666;8.948;2022-07-06T02:54:31;14.40;99.90
20380;DHT22;10349;48.666;8.948;2022-07-06T02:56:56;14.30;99.90
20380;DHT22;10349;48.666;8.948;2022-07-06T02:59:22;14.20;99.90
20380;DHT22;10349;48.666;8.948;2022-07-06T03:01:48;14.10;99.90
20380;DHT22;10349;48.666;8.948;2022-07-06T03:04:14;14.00;99.90
20380;DHT22;10349;48.666;8.948;2022-07-06T03:06:40;13.90;99.90
20380;DHT22;10349;48.666;8.948;2022-07-06T03:09:06;13.80;99.90
20380;DHT22;10349;48.666;8.948;2022-07-06T03:11:32;13.70;99.90
20380;DHT22;10349;48.666;8.948;2022-07-06T03:14:05;13.70;99.90
20380;DHT22;10349;48.666;8.948;2022-07-06T03:16:33;13.70;99.90
20380;DHT22;10349;48.666;8.948;2022-07-06T03:18:59;13.70;99.90
20380;DHT22;10349;48.666;8.948;2022-07-06T03:21:25;13.70;99.90
20380;DHT22;10349;48.666;8.948;2022-07-06T03:23:51;13.70;99.90
20380;DHT22;10349;48.666;8.948;2022-07-06T03:26:16;13.70;99.90
20380;DHT22;10349;48.666;8.948;2022-07-06T03:28:43;13.60;99.90
20380;DHT22;10349;48.666;8.948;2022-07-06T03:31:09;13.60;99.90
20380;DHT22;10349;48.666;8.948;2022-07-06T03:33:34;13.70;99.90
20380;DHT22;10349;48.666;8.948;2022-07-06T03:36:01;13.60;99.90
20380;DHT22;10349;48.666;8.948;2022-07-06T03:38:26;13.40;99.90
20380;DHT22;10349;48.666;8.948;2022-07-06T03:40:52;13.30;99.90
20380;DHT22;10349;48.666;8.948;2022-07-06T03:43:18;13.20;99.90
20380;DHT22;10349;48.666;8.948;2022-07-06T03:45:43;13.20;99.90
20380;DHT22;10349;48.666;8.948;2022-07-06T03:48:09;13.20;99.90
20380;DHT22;10349;48.666;8.948;2022-07-06T03:50:38;13.20;99.90
20380;DHT22;10349;48.666;8.948;2022-07-06T03:53:04;13.20;99.90
20380;DHT22;10349;48.666;8.948;2022-07-06T03:55:29;13.20;99.90
20380;DHT22;10349;48.666;8.948;2022-07-06T03:58:00;13.20;99.90
20380;DHT22;10349;48.666;8.948;2022-07-06T04:00:27;13.20;99.90
20380;DHT22;10349;48.666;8.948;2022-07-06T04:03:00;13.20;99.90
20380;DHT22;10349;48.666;8.948;2022-07-06T04:05:29;13.20;99.90
20380;DHT22;10349;48.666;8.948;2022-07-06T04:07:56;13.20;99.90
20380;DHT22;10349;48.666;8.948;2022-07-06T04:10:29;13.20;99.90
20380;DHT22;10349;48.666;8.948;2022-07-06T04:12:56;13.20;99.90
20380;DHT22;10349;48.666;8.948;2022-07-06T04:15:22;13.20;99.90
20380;DHT22;10349;48.666;8.948;2022-07-06T04:17:48;13.30;99.90
20380;DHT22;10349;48.666;8.948;2022-07-06T04:20:25;13.30;99.90
20380;DHT22;10349;48.666;8.948;2022-07-06T04:22:52;13.30;99.90
20380;DHT22;10349;48.666;8.948;2022-07-06T04:25:19;13.30;99.90
20380;DHT22;10349;48.666;8.948;2022-07-06T04:27:45;13.40;99.90
20380;DHT22;10349;48.666;8.948;2022-07-06T04:30:12;13.60;99.90
20380;DHT22;10349;48.666;8.948;2022-07-06T04:32:39;13.80;99.90
20380;DHT22;10349;48.666;8.948;2022-07-06T04:35:05;14.20;99.90
20380;DHT22;10349;48.666;8.948;2022-07-06T04:37:31;14.60;99.90
20380;DHT22;10349;48.666;8.948;2022-07-06T04:39:57;15.00;99.90
20380;DHT22;10349;48.666;8.948;2022-07-06T04:42:23;15.20;99.90
20380;DHT22;10349;48.666;8.948;2022-07-06T04:44:49;15.40;99.90
20380;DHT22;10349;48.666;8.948;2022-07-06T04:47:17;15.50;99.90
20380;DHT22;10349;48.666;8.948;2022-07-06T04:49:44;15.70;99.90
20380;DHT22;10349;48.666;8.948;2022-07-06T04:52:09;15.80;99.90
20380;DHT22;10349;48.666;8.948;2022-07-06T04:54:35;16.10;99.90
20380;DHT22;10349;48.666;8.948;2022-07-06T04:57:01;16.30;99.90
20380;DHT22;10349;48.666;8.948;2022-07-06T04:59:27;16.60;99.90
20380;DHT22;10349;48.666;8.948;2022-07-06T05:01:54;16.90;99.90
20380;DHT22;10349;48.666;8.948;2022-07-06T05:04:19;17.10;99.90
20380;DHT22;10349;48.666;8.948;2022-07-06T05:06:46;17.10;99.90
20380;DHT22;10349;48.666;8.948;2022-07-06T05:09:13;17.20;99.90
20380;DHT22;10349;48.666;8.948;2022-07-06T05:11:40;17.50;99.90
20380;DHT22;10349;48.666;8.948;2022-07-06T05:14:06;17.50;99.90
20380;DHT22;10349;48.666;8.948;2022-07-06T05:16:32;17.70;99.90
20380;DHT22;10349;48.666;8.948;2022-07-06T05:18:59;17.80;99.90
20380;DHT22;10349;48.666;8.948;2022-07-06T05:21:25;18.10;99.90
20380;DHT22;10349;48.666;8.948;2022-07-06T05:23:51;18.10;99.90
20380;DHT22;10349;48.666;8.948;2022-07-06T05:26:17;18.10;99.90
20380;DHT22;10349;48.666;8.948;2022-07-06T05:28:44;18.40;99.90
20380;DHT22;10349;48.666;8.948;2022-07-06T05:31:13;18.50;99.90
20380;DHT22;10349;48.666;8.948;2022-07-06T05:33:39;18.40;99.90
20380;DHT22;10349;48.666;8.948;2022-07-06T05:36:05;17.90;99.90
20380;DHT22;10349;48.666;8.948;2022-07-06T05:38:31;17.60;99.90
20380;DHT22;10349;48.666;8.948;2022-07-06T05:40:57;17.70;99.90
20380;DHT22;10349;48.666;8.948;2022-07-06T05:43:23;17.70;99.90
20380;DHT22;10349;48.666;8.948;2022-07-06T05:45:50;17.40;99.90
20380;DHT22;10349;48.666;8.948;2022-07-06T05:48:18;17.30;99.90
20380;DHT22;10349;48.666;8.948;2022-07-06T05:51:02;17.30;99.90
20380;DHT22;10349;48.666;8.948;2022-07-06T05:53:29;17.50;99.90
20380;DHT22;10349;48.666;8.948;2022-07-06T05:55:56;17.60;99.90
20380;DHT22;10349;48.666;8.948;2022-07-06T05:58:22;17.60;99.90
20380;DHT22;10349;48.666;8.948;2022-07-06T06:00:49;18.10;99.90
20380;DHT22;10349;48.666;8.948;2022-07-06T06:03:18;18.70;99.90
20380;DHT22;10349;48.666;8.948;2022-07-06T06:05:46;19.40;99.90
20380;DHT22;10349;48.666;8.948;2022-07-06T06:08:14;19.90;99.90
20380;DHT22;10349;48.666;8.948;2022-07-06T06:10:40;20.10;99.90
20380;DHT22;10349;48.666;8.948;2022-07-06T06:13:08;20.30;99.90
20380;DHT22;10349;48.666;8.948;2022-07-06T06:15:35;20.30;99.90
20380;DHT22;10349;48.666;8.948;2022-07-06T06:18:01;20.60;99.90
20380;DHT22;10349;48.666;8.948;2022-07-06T06:20:26;20.90;99.90
20380;DHT22;10349;48.666;8.948;2022-07-06T06:22:56;21.20;99.90
20380;DHT22;10349;48.666;8.948;2022-07-06T06:25:37;21.50;99.90
20380;DHT22;10349;48.666;8.948;2022-07-06T06:28:04;21.50;99.90
20380;DHT22;10349;48.666;8.948;2022-07-06T06:30:30;21.70;99.90
20380;DHT22;10349;48.666;8.948;2022-07-06T06:38:11;21.50;99.90
20380;DHT22;10349;48.666;8.948;2022-07-06T06:40:37;21.60;99.90
20380;DHT22;10349;48.666;8.948;2022-07-06T06:43:03;21.80;99.90
20380;DHT22;10349;48.666;8.948;2022-07-06T06:45:30;22.00;99.90
20380;DHT22;10349;48.666;8.948;2022-07-06T06:47:56;22.00;99.90
20380;DHT22;10349;48.666;8.948;2022-07-06T06:50:21;21.80;99.90
20380;DHT22;10349;48.666;8.948;2022-07-06T06:52:50;21.60;99.90
20380;DHT22;10349;48.666;8.948;2022-07-06T06:55:16;21.60;99.90
20380;DHT22;10349;48.666;8.948;2022-07-06T06:57:42;21.10;99.90
20380;DHT22;10349;48.666;8.948;2022-07-06T07:00:08;20.80;99.90
20380;DHT22;10349;48.666;8.948;2022-07-06T07:02:34;20.90;99.90
20380;DHT22;10349;48.666;8.948;2022-07-06T07:04:59;21.20;99.90
20380;DHT22;10349;48.666;8.948;2022-07-06T07:07:25;20.90;99.90
20380;DHT22;10349;48.666;8.948;2022-07-06T07:09:51;20.80;99.90
20380;DHT22;10349;48.666;8.948;2022-07-06T07:12:17;20.80;99.90
20380;DHT22;10349;48.666;8.948;2022-07-06T07:14:43;20.90;99.90
20380;DHT22;10349;48.666;8.948;2022-07-06T07:17:10;20.60;99.90
20380;DHT22;10349;48.666;8.948;2022-07-06T07:19:37;20.30;99.90
20380;DHT22;10349;48.666;8.948;2022-07-06T07:22:03;20.10;99.90
20380;DHT22;10349;48.666;8.948;2022-07-06T07:24:29;20.10;99.90
20380;DHT22;10349;48.666;8.948;2022-07-06T07:26:55;20.20;99.90
20380;DHT22;10349;48.666;8.948;2022-07-06T07:29:21;20.40;99.90
20380;DHT22;10349;48.666;8.948;2022-07-06T07:31:47;20.20;99.90
20380;DHT22;10349;48.666;8.948;2022-07-06T07:34:12;19.90;99.90
20380;DHT22;10349;48.666;8.948;2022-07-06T07:36:38;19.70;99.90
20380;DHT22;10349;48.666;8.948;2022-07-06T07:39:04;19.60;99.90
20380;DHT22;10349;48.666;8.948;2022-07-06T07:41:30;19.40;99.90
20380;DHT22;10349;48.666;8.948;2022-07-06T07:43:56;19.50;99.90
20380;DHT22;10349;48.666;8.948;2022-07-06T07:46:22;19.60;99.90
20380;DHT22;10349;48.666;8.948;2022-07-06T07:48:48;19.90;99.90
20380;DHT22;10349;48.666;8.948;2022-07-06T07:51:14;20.00;99.90
20380;DHT22;10349;48.666;8.948;2022-07-06T07:53:39;19.80;99.90
20380;DHT22;10349;48.666;8.948;2022-07-06T07:56:05;19.80;99.90
20380;DHT22;10349;48.666;8.948;2022-07-06T07:58:31;19.70;99.90
20380;DHT22;10349;48.666;8.948;2022-07-06T08:00:57;19.60;99.90
20380;DHT22;10349;48.666;8.948;2022-07-06T08:03:23;19.40;99.90
20380;DHT22;10349;48.666;8.948;2022-07-06T08:05:49;19.50;99.90
20380;DHT22;10349;48.666;8.948;2022-07-06T08:08:16;19.80;99.90
20380;DHT22;10349;48.666;8.948;2022-07-06T08:10:41;19.90;99.90
20380;DHT22;10349;48.666;8.948;2022-07-06T08:13:07;20.10;99.90
20380;DHT22;10349;48.666;8.948;2022-07-06T08:15:33;20.40;99.90
20380;DHT22;10349;48.666;8.948;2022-07-06T08:17:59;20.50;99.90
20380;DHT22;10349;48.666;8.948;2022-07-06T08:20:25;20.80;99.90
20380;DHT22;10349;48.666;8.948;2022-07-06T08:22:51;20.80;99.90
20380;DHT22;10349;48.666;8.948;2022-07-06T08:25:17;20.60;99.90
20380;DHT22;10349;48.666;8.948;2022-07-06T08:27:43;20.30;99.90
20380;DHT22;10349;48.666;8.948;2022-07-06T08:30:10;20.10;99.90
20380;DHT22;10349;48.666;8.948;2022-07-06T08:32:43;20.00;99.90
20380;DHT22;10349;48.666;8.948;2022-07-06T08:35:10;20.00;99.90
20380;DHT22;10349;48.666;8.948;2022-07-06T08:37:36;20.10;99.90
20380;DHT22;10349;48.666;8.948;2022-07-06T08:40:02;20.30;99.90
20380;DHT22;10349;48.666;8.948;2022-07-06T08:42:33;20.30;99.90
20380;DHT22;10349;48.666;8.948;2022-07-06T08:45:01;20.40;99.90
20380;DHT22;10349;48.666;8.948;2022-07-06T08:47:27;20.50;99.90
20380;DHT22;10349;48.666;8.948;2022-07-06T08:49:54;20.50;99.90
20380;DHT22;10349;48.666;8.948;2022-07-06T08:52:22;20.50;99.90
20380;DHT22;10349;48.666;8.948;2022-07-06T08:54:49;20.40;99.90
20380;DHT22;10349;48.666;8.948;2022-07-06T08:57:15;20.40;99.90
20380;DHT22;10349;48.666;8.948;2022-07-06T08:59:41;20.40;99.90
20380;DHT22;10349;48.666;8.948;2022-07-06T09:02:06;20.50;99.90
20380;DHT22;10349;48.666;8.948;2022-07-06T09:04:33;20.60;99.90
20380;DHT22;10349;48.666;8.948;2022-07-06T09:07:00;20.60;99.90
20380;DHT22;10349;48.666;8.948;2022-07-06T09:09:29;20.80;99.90
20380;DHT22;10349;48.666;8.948;2022-07-06T09:11:58;20.80;99.90
20380;DHT22;10349;48.666;8.948;2022-07-06T09:14:24;21.00;99.90
20380;DHT22;10349;48.666;8.948;2022-07-06T09:17:03;21.10;99.90
20380;DHT22;10349;48.666;8.948;2022-07-06T09:19:31;21.00;99.90
20380;DHT22;10349;48.666;8.948;2022-07-06T09:21:57;20.90;99.90
20380;DHT22;10349;48.666;8.948;2022-07-06T09:24:23;21.10;99.90
20380;DHT22;10349;48.666;8.948;2022-07-06T09:26:49;21.30;99.90
20380;DHT22;10349;48.666;8.948;2022-07-06T09:29:15;21.50;99.90
20380;DHT22;10349;48.666;8.948;2022-07-06T09:31:41;21.40;99.90
20380;DHT22;10349;48.666;8.948;2022-07-06T09:34:08;21.40;99.90
20380;DHT22;10349;48.666;8.948;2022-07-06T09:36:49;21.40;99.90
20380;DHT22;10349;48.666;8.948;2022-07-06T09:39:29;21.60;99.90
20380;DHT22;10349;48.666;8.948;2022-07-06T09:42:00;21.60;99.90
20380;DHT22;10349;48.666;8.948;2022-07-06T09:44:35;21.50;99.90
20380;DHT22;10349;48.666;8.948;2022-07-06T09:47:11;21.70;99.90
20380;DHT22;10349;48.666;8.948;2022-07-06T09:49:38;21.90;99.90
20380;DHT22;10349;48.666;8.948;2022-07-06T09:52:08;22.00;99.90
20380;DHT22;10349;48.666;8.948;2022-07-06T09:54:35;22.30;99.90
20380;DHT22;10349;48.666;8.948;2022-07-06T09:57:02;22.30;99.90
20380;DHT22;10349;48.666;8.948;2022-07-06T09:59:30;22.50;99.90
20380;DHT22;10349;48.666;8.948;2022-07-06T10:02:03;22.60;99.90
20380;DHT22;10349;48.666;8.948;2022-07-06T10:04:30;22.80;99.90
20380;DHT22;10349;48.666;8.948;2022-07-06T10:06:57;22.90;99.90
20380;DHT22;10349;48.666;8.948;2022-07-06T10:09:25;23.20;99.90
20380;DHT22;10349;48.666;8.948;2022-07-06T10:11:54;23.20;99.90
20380;DHT22;10349;48.666;8.948;2022-07-06T10:14:22;23.20;99.90
20380;DHT22;10349;48.666;8.948;2022-07-06T10:16:49;22.90;99.90
20380;DHT22;10349;48.666;8.948;2022-07-06T10:19:16;22.90;99.90
20380;DHT22;10349;48.666;8.948;2022-07-06T10:21:42;22.70;99.90
20380;DHT22;10349;48.666;8.948;2022-07-06T10:24:09;22.70;99.90
20380;DHT22;10349;48.666;8.948;2022-07-06T10:26:35;22.70;99.90
20380;DHT22;10349;48.666;8.948;2022-07-06T10:29:03;22.80;99.90
20380;DHT22;10349;48.666;8.948;2022-07-06T10:31:31;22.80;99.90
20380;DHT22;10349;48.666;8.948;2022-07-06T10:34:01;22.90;99.90
20380;DHT22;10349;48.666;8.948;2022-07-06T10:36:27;23.10;99.90
20380;DHT22;10349;48.666;8.948;2022-07-06T10:38:54;23.30;99.90
20380;DHT22;10349;48.666;8.948;2022-07-06T10:41:40;23.40;99.90
20380;DHT22;10349;48.666;8.948;2022-07-06T10:44:16;23.40;99.90
20380;DHT22;10349;48.666;8.948;2022-07-06T10:46:55;23.60;99.90
20380;DHT22;10349;48.666;8.948;2022-07-06T10:49:23;23.50;99.90
20380;DHT22;10349;48.666;8.948;2022-07-06T10:51:49;23.40;99.90
20380;DHT22;10349;48.666;8.948;2022-07-06T10:54:17;23.20;99.90
20380;DHT22;10349;48.666;8.948;2022-07-06T11:01:39;23.20;99.90
20380;DHT22;10349;48.666;8.948;2022-07-06T11:04:07;23.10;99.90
20380;DHT22;10349;48.666;8.948;2022-07-06T11:06:35;22.70;99.90
20380;DHT22;10349;48.666;8.948;2022-07-06T11:09:08;22.30;99.90
20380;DHT22;10349;48.666;8.948;2022-07-06T11:16:34;21.90;99.90
20380;DHT22;10349;48.666;8.948;2022-07-06T11:19:13;22.00;99.90
20380;DHT22;10349;48.666;8.948;2022-07-06T11:21:40;22.20;99.90
20380;DHT22;10349;48.666;8.948;2022-07-06T11:24:08;22.10;99.90
20380;DHT22;10349;48.666;8.948;2022-07-06T11:26:35;22.00;99.90
20380;DHT22;10349;48.666;8.948;2022-07-06T11:29:06;21.60;99.90
20380;DHT22;10349;48.666;8.948;2022-07-06T11:31:34;21.40;99.90
20380;DHT22;10349;48.666;8.948;2022-07-06T11:34:01;21.40;99.90
20380;DHT22;10349;48.666;8.948;2022-07-06T11:36:27;21.50;99.90
20380;DHT22;10349;48.666;8.948;2022-07-06T11:38:52;21.40;99.90
20380;DHT22;10349;48.666;8.948;2022-07-06T11:41:18;21.50;99.90
20380;DHT22;10349;48.666;8.948;2022-07-06T11:43:45;21.50;99.90
20380;DHT22;10349;48.666;8.948;2022-07-06T11:48:54;21.40;99.90
20380;DHT22;10349;48.666;8.948;2022-07-06T11:51:21;21.40;99.90
20380;DHT22;10349;48.666;8.948;2022-07-06T11:53:50;21.60;99.90
20380;DHT22;10349;48.666;8.948;2022-07-06T11:56:16;22.00;99.90
20380;DHT22;10349;48.666;8.948;2022-07-06T11:58:45;22.30;99.90
20380;DHT22;10349;48.666;8.948;2022-07-06T12:01:12;22.00;99.90
20380;DHT22;10349;48.666;8.948;2022-07-06T12:03:38;22.00;99.90
20380;DHT22;10349;48.666;8.948;2022-07-06T12:06:14;22.20;99.90
20380;DHT22;10349;48.666;8.948;2022-07-06T12:08:51;22.40;99.90
20380;DHT22;10349;48.666;8.948;2022-07-06T12:11:29;22.30;99.90
20380;DHT22;10349;48.666;8.948;2022-07-06T12:13:56;22.20;99.90
20380;DHT22;10349;48.666;8.948;2022-07-06T12:16:37;22.10;99.90
20380;DHT22;10349;48.666;8.948;2022-07-06T12:19:04;22.10;99.90
20380;DHT22;10349;48.666;8.948;2022-07-06T12:21:30;22.30;99.90
20380;DHT22;10349;48.666;8.948;2022-07-06T12:23:57;22.60;99.90
20380;DHT22;10349;48.666;8.948;2022-07-06T12:26:24;22.80;99.90
20380;DHT22;10349;48.666;8.948;2022-07-06T12:29:01;22.90;99.90
20380;DHT22;10349;48.666;8.948;2022-07-06T12:31:38;23.20;99.90
20380;DHT22;10349;48.666;8.948;2022-07-06T12:34:05;23.30;99.90
20380;DHT22;10349;48.666;8.948;2022-07-06T12:36:31;23.20;99.90
20380;DHT22;10349;48.666;8.948;2022-07-06T12:39:11;23.30;99.90
20380;DHT22;10349;48.666;8.948;2022-07-06T12:41:37;23.30;99.90
20380;DHT22;10349;48.666;8.948;2022-07-06T12:44:09;22.90;99.90
20380;DHT22;10349;48.666;8.948;2022-07-06T12:46:39;22.80;99.90
20380;DHT22;10349;48.666;8.948;2022-07-06T12:49:20;22.70;99.90
20380;DHT22;10349;48.666;8.948;2022-07-06T12:54:41;22.30;99.90
20380;DHT22;10349;48.666;8.948;2022-07-06T12:57:15;22.20;99.90
20380;DHT22;10349;48.666;8.948;2022-07-06T13:02:23;22.30;99.90
20380;DHT22;10349;48.666;8.948;2022-07-06T13:05:05;22.50;99.90
20380;DHT22;10349;48.666;8.948;2022-07-06T13:07:33;22.90;99.90
20380;DHT22;10349;48.666;8.948;2022-07-06T13:10:06;23.00;99.90
20380;DHT22;10349;48.666;8.948;2022-07-06T13:12:33;22.90;99.90
20380;DHT22;10349;48.666;8.948;2022-07-06T13:14:59;22.90;99.90
20380;DHT22;10349;48.666;8.948;2022-07-06T13:17:24;23.00;99.90
20380;DHT22;10349;48.666;8.948;2022-07-06T13:19:50;22.80;99.90
20380;DHT22;10349;48.666;8.948;2022-07-06T13:22:16;22.90;99.90
20380;DHT22;10349;48.666;8.948;2022-07-06T13:24:42;22.90;99.90
20380;DHT22;10349;48.666;8.948;2022-07-06T13:27:08;22.90;99.90
20380;DHT22;10349;48.666;8.948;2022-07-06T13:29:34;23.00;99.90
20380;DHT22;10349;48.666;8.948;2022-07-06T13:32:00;23.20;99.90
20380;DHT22;10349;48.666;8.948;2022-07-06T13:34:26;23.30;99.90
20380;DHT22;10349;48.666;8.948;2022-07-06T13:36:52;23.10;99.90
20380;DHT22;10349;48.666;8.948;2022-07-06T13:39:18;22.80;99.90
20380;DHT22;10349;48.666;8.948;2022-07-06T13:41:44;22.80;99.90
20380;DHT22;10349;48.666;8.948;2022-07-06T13:44:11;22.70;99.90
20380;DHT22;10349;48.666;8.948;2022-07-06T13:46:38;22.50;99.90
20380;DHT22;10349;48.666;8.948;2022-07-06T13:49:05;22.50;99.90
20380;DHT22;10349;48.666;8.948;2022-07-06T13:51:31;22.40;99.90
20380;DHT22;10349;48.666;8.948;2022-07-06T13:54:01;22.40;99.90
20380;DHT22;10349;48.666;8.948;2022-07-06T13:56:27;22.50;99.90
20380;DHT22;10349;48.666;8.948;2022-07-06T13:58:53;22.60;99.90
20380;DHT22;10349;48.666;8.948;2022-07-06T14:01:19;22.60;99.90
20380;DHT22;10349;48.666;8.948;2022-07-06T14:03:45;22.40;99.90
20380;DHT22;10349;48.666;8.948;2022-07-06T14:06:11;22.40;99.90
20380;DHT22;10349;48.666;8.948;2022-07-06T14:08:39;22.40;99.90
20380;DHT22;10349;48.666;8.948;2022-07-06T14:11:06;22.50;99.90
20380;DHT22;10349;48.666;8.948;2022-07-06T14:13:36;22.20;99.90
20380;DHT22;10349;48.666;8.948;2022-07-06T14:16:02;22.20;99.90
20380;DHT22;10349;48.666;8.948;2022-07-06T14:18:28;22.50;99.90
20380;DHT22;10349;48.666;8.948;2022-07-06T14:20:54;22.80;99.90
20380;DHT22;10349;48.666;8.948;2022-07-06T14:23:21;23.10;99.90
20380;DHT22;10349;48.666;8.948;2022-07-06T14:25:48;23.30;99.90
20380;DHT22;10349;48.666;8.948;2022-07-06T14:28:15;23.50;99.90
20380;DHT22;10349;48.666;8.948;2022-07-06T14:30:43;23.20;99.90
20380;DHT22;10349;48.666;8.948;2022-07-06T14:33:11;23.20;99.90
20380;DHT22;10349;48.666;8.948;2022-07-06T14:35:48;23.30;99.90
20380;DHT22;10349;48.666;8.948;2022-07-06T14:38:18;23.30;99.90
20380;DHT22;10349;48.666;8.948;2022-07-06T14:40:44;23.30;99.90
20380;DHT22;10349;48.666;8.948;2022-07-06T14:43:09;23.30;99.90
20380;DHT22;10349;48.666;8.948;2022-07-06T14:45:36;23.30;99.90
20380;DHT22;10349;48.666;8.948;2022-07-06T14:48:02;23.10;99.90
20380;DHT22;10349;48.666;8.948;2022-07-06T14:50:28;23.20;99.90
20380;DHT22;10349;48.666;8.948;2022-07-06T14:52:54;23.40;99.90
20380;DHT22;10349;48.666;8.948;2022-07-06T14:55:20;23.20;99.90
20380;DHT22;10349;48.666;8.948;2022-07-06T14:57:46;23.10;99.90
20380;DHT22;10349;48.666;8.948;2022-07-06T15:00:13;23.20;99.90
20380;DHT22;10349;48.666;8.948;2022-07-06T15:02:39;23.30;99.90
20380;DHT22;10349;48.666;8.948;2022-07-06T15:05:05;23.30;99.90
20380;DHT22;10349;48.666;8.948;2022-07-06T15:07:31;22.90;99.90
20380;DHT22;10349;48.666;8.948;2022-07-06T15:09:57;22.30;99.90
20380;DHT22;10349;48.666;8.948;2022-07-06T15:12:23;22.10;99.90
20380;DHT22;10349;48.666;8.948;2022-07-06T15:14:48;22.10;99.90
20380;DHT22;10349;48.666;8.948;2022-07-06T15:17:14;22.00;99.90
20380;DHT22;10349;48.666;8.948;2022-07-06T15:19:42;22.10;99.90
20380;DHT22;10349;48.666;8.948;2022-07-06T15:22:09;22.10;99.90
20380;DHT22;10349;48.666;8.948;2022-07-06T15:24:34;22.10;99.90
20380;DHT22;10349;48.666;8.948;2022-07-06T15:27:02;22.10;99.90
20380;DHT22;10349;48.666;8.948;2022-07-06T15:29:28;22.30;99.90
20380;DHT22;10349;48.666;8.948;2022-07-06T15:31:54;22.40;99.90
20380;DHT22;10349;48.666;8.948;2022-07-06T15:34:20;22.30;99.90
20380;DHT22;10349;48.666;8.948;2022-07-06T15:36:45;22.10;99.90
20380;DHT22;10349;48.666;8.948;2022-07-06T15:39:11;22.10;99.90
20380;DHT22;10349;48.666;8.948;2022-07-06T15:41:37;22.20;99.90
20380;DHT22;10349;48.666;8.948;2022-07-06T15:44:03;22.50;99.90
20380;DHT22;10349;48.666;8.948;2022-07-06T15:46:29;22.80;99.90
20380;DHT22;10349;48.666;8.948;2022-07-06T15:48:55;23.10;99.90
20380;DHT22;10349;48.666;8.948;2022-07-06T15:51:20;23.20;99.90
20380;DHT22;10349;48.666;8.948;2022-07-06T15:53:46;23.30;99.90